Time;durP1;ratioP1;P1;durP2;ratioP2;P2;SDS_P1;SDS_P2;PMS_P1;PMS_P2;Temp;Humidity;BMP_temperature;BMP_pressure;BME280_temperature;BME280_humidity;BME280_pressure;Samples;Min_cycle;Max_cycle;Signal;HPM_P1;HPM_P2
2023/11/27 00:00:31;;;;;;;16.95;15.00;;;;;;;;;;4971109;28;20042;-73
2023/11/27 00:02:57;;;;;;;20.08;17.00;;;;;;;;;;4954016;28;20139;-73
2023/11/27 00:05:23;;;;;;;18.45;12.38;;;;;;;;;;4970539;28;20482;-74
2023/11/27 00:07:49;;;;;;;16.35;12.68;;;;;;;;;;4953938;28;20509;-74
2023/11/27 00:10:16;;;;;;;17.80;15.95;;;;;;;;;;4953737;28;20365;-73
2023/11/27 00:12:43;;;;;;;15.10;12.10;;;;;;;;;;4970504;28;20042;-73
2023/11/27 00:15:09;;;;;;;15.20;12.98;;;;;;;;;;4973335;28;20049;-73
2023/11/27 00:17:35;;;;;;;18.88;17.02;;;;;;;;;;4972628;28;20062;-73
2023/11/27 00:20:03;;;;;;;20.88;15.43;;;;;;;;;;4956989;28;20541;-73
2023/11/27 00:22:30;;;;;;;11.50;10.15;;;;;;;;;;4974790;28;20047;-74
2023/11/27 00:24:55;;;;;;;11.30;9.63;;;;;;;;;;4974532;28;20097;-73
2023/11/27 00:27:22;;;;;;;17.20;14.77;;;;;;;;;;4956980;28;20045;-73
2023/11/27 00:29:48;;;;;;;18.30;13.77;;;;;;;;;;4974419;28;20038;-74
2023/11/27 00:32:14;;;;;;;14.80;10.82;;;;;;;;;;4957055;28;20078;-73
2023/11/27 00:34:41;;;;;;;18.63;10.55;;;;;;;;;;4972825;28;20043;-75
2023/11/27 00:37:07;;;;;;;17.65;15.85;;;;;;;;;;4956694;28;20042;-74
2023/11/27 00:39:33;;;;;;;13.23;11.63;;;;;;;;;;4956805;28;20061;-72
2023/11/27 00:41:59;;;;;;;15.13;9.43;;;;;;;;;;4974349;28;20046;-75
2023/11/27 00:44:25;;;;;;;11.90;9.32;;;;;;;;;;4972855;28;20095;-74
2023/11/27 00:46:51;;;;;;;18.00;11.48;;;;;;;;;;4973013;28;20038;-74
2023/11/27 00:49:19;;;;;;;13.18;10.65;;;;;;;;;;4972850;28;20583;-74
2023/11/27 00:51:45;;;;;;;15.75;12.18;;;;;;;;;;4956422;28;20078;-74
2023/11/27 00:54:11;;;;;;;15.23;11.68;;;;;;;;;;4973775;28;20058;-75
2023/11/27 00:56:37;;;;;;;12.13;10.27;;;;;;;;;;4973743;28;20122;-75
2023/11/27 00:59:03;;;;;;;16.17;12.18;;;;;;;;;;4974069;28;20086;-74
2023/11/27 01:01:29;;;;;;;24.75;10.80;;;;;;;;;;4956967;28;20560;-74
2023/11/27 01:03:55;;;;;;;15.57;12.68;;;;;;;;;;4957168;28;20059;-73
2023/11/27 01:06:21;;;;;;;13.30;8.80;;;;;;;;;;4973973;28;20030;-74
2023/11/27 01:08:48;;;;;;;13.25;10.35;;;;;;;;;;4973778;28;20057;-74
2023/11/27 01:11:14;;;;;;;18.02;12.02;;;;;;;;;;4973780;28;20034;-73
2023/11/27 01:13:40;;;;;;;14.68;11.10;;;;;;;;;;4972334;28;20050;-73
2023/11/27 01:16:06;;;;;;;15.63;13.18;;;;;;;;;;4956094;28;20053;-73
2023/11/27 01:18:33;;;;;;;10.35;7.90;;;;;;;;;;4973054;28;20058;-72
2023/11/27 01:21:00;;;;;;;11.38;9.98;;;;;;;;;;4973398;28;20038;-72
2023/11/27 01:23:26;;;;;;;15.05;10.50;;;;;;;;;;4973111;28;20043;-74
2023/11/27 01:25:52;;;;;;;11.00;10.02;;;;;;;;;;4955784;28;20548;-73
2023/11/27 01:28:18;;;;;;;11.35;10.07;;;;;;;;;;4972380;28;20070;-74
2023/11/27 01:30:44;;;;;;;13.15;10.88;;;;;;;;;;4973065;28;20110;-72
2023/11/27 01:33:12;;;;;;;11.55;9.05;;;;;;;;;;4973464;28;20516;-73
2023/11/27 01:35:38;;;;;;;13.70;8.75;;;;;;;;;;4973556;28;20051;-74
2023/11/27 01:38:04;;;;;;;12.05;10.77;;;;;;;;;;4973897;28;20042;-73
2023/11/27 01:40:30;;;;;;;8.02;7.22;;;;;;;;;;4972996;28;20137;-72
2023/11/27 01:42:58;;;;;;;13.90;10.15;;;;;;;;;;4972185;28;20895;-73
2023/11/27 01:45:24;;;;;;;7.68;6.25;;;;;;;;;;4955773;28;20090;-74
2023/11/27 01:47:51;;;;;;;13.07;10.55;;;;;;;;;;4973177;28;20085;-72
2023/11/27 01:50:17;;;;;;;6.63;6.03;;;;;;;;;;4972252;28;20038;-74
2023/11/27 01:52:43;;;;;;;9.32;8.52;;;;;;;;;;4973317;28;20069;-73
2023/11/27 01:55:11;;;;;;;11.15;9.88;;;;;;;;;;4976080;28;20399;-75
2023/11/27 01:57:37;;;;;;;11.60;10.48;;;;;;;;;;4951404;28;20074;-73
2023/11/27 02:00:05;;;;;;;9.73;8.73;;;;;;;;;;4983421;28;20125;-74
2023/11/27 02:02:44;;;;;;;10.55;9.05;;;;;;;;;;4969094;28;20049;-74
2023/11/27 02:05:10;;;;;;;7.43;6.63;;;;;;;;;;4985143;28;20050;-73
2023/11/27 02:07:36;;;;;;;6.63;5.97;;;;;;;;;;4968011;28;20046;-73
2023/11/27 02:10:03;;;;;;;10.57;9.57;;;;;;;;;;4964961;28;20058;-73
2023/11/27 02:12:30;;;;;;;11.90;10.70;;;;;;;;;;4978325;28;20101;-74
2023/11/27 02:14:58;;;;;;;12.18;10.80;;;;;;;;;;4972743;28;20054;-74
2023/11/27 02:17:24;;;;;;;11.00;9.88;;;;;;;;;;4972584;28;20054;-73
2023/11/27 02:19:51;;;;;;;7.88;7.07;;;;;;;;;;4971094;28;20074;-74
2023/11/27 02:22:17;;;;;;;10.65;8.40;;;;;;;;;;4971107;28;20041;-74
2023/11/27 02:24:43;;;;;;;7.75;6.50;;;;;;;;;;4970800;28;20408;-75
2023/11/27 02:27:10;;;;;;;10.55;9.45;;;;;;;;;;4955044;28;20043;-74
2023/11/27 02:29:36;;;;;;;9.07;6.68;;;;;;;;;;4972203;28;20054;-74
2023/11/27 02:32:03;;;;;;;8.63;7.65;;;;;;;;;;4955114;28;20065;-75
2023/11/27 02:34:29;;;;;;;9.98;8.88;;;;;;;;;;4972429;28;20101;-75
2023/11/27 02:36:55;;;;;;;10.77;9.68;;;;;;;;;;4971458;28;20049;-74
2023/11/27 02:39:21;;;;;;;10.82;8.98;;;;;;;;;;4974316;28;20477;-75
2023/11/27 02:41:47;;;;;;;6.63;6.03;;;;;;;;;;4974037;28;20530;-75
2023/11/27 02:44:14;;;;;;;11.93;10.80;;;;;;;;;;4957791;28;20053;-75
2023/11/27 02:46:41;;;;;;;10.23;9.23;;;;;;;;;;4973782;28;20042;-73
2023/11/27 02:49:07;;;;;;;7.65;6.93;;;;;;;;;;4954715;28;20043;-74
2023/11/27 02:51:43;;;;;;;9.23;8.32;;;;;;;;;;4970950;28;20066;-75
2023/11/27 02:54:10;;;;;;;10.25;9.32;;;;;;;;;;4972165;28;20217;-75
2023/11/27 02:56:36;;;;;;;10.90;10.00;;;;;;;;;;4971834;28;20113;-74
2023/11/27 02:59:03;;;;;;;10.45;8.38;;;;;;;;;;4954612;28;20059;-74
2023/11/27 03:01:29;;;;;;;6.32;5.72;;;;;;;;;;4972272;28;20043;-75
2023/11/27 03:03:55;;;;;;;9.35;8.48;;;;;;;;;;4970254;28;20138;-75
2023/11/27 03:06:21;;;;;;;10.00;9.10;;;;;;;;;;4954534;28;20035;-75
2023/11/27 03:08:47;;;;;;;8.63;7.93;;;;;;;;;;4954254;28;20141;-75
2023/11/27 03:11:14;;;;;;;6.05;5.50;;;;;;;;;;4971416;28;20049;-75
2023/11/27 03:13:40;;;;;;;8.40;7.60;;;;;;;;;;4953605;28;20053;-75
2023/11/27 03:16:06;;;;;;;6.65;6.13;;;;;;;;;;4971457;28;20035;-74
2023/11/27 03:18:32;;;;;;;8.27;7.53;;;;;;;;;;4971249;28;20462;-76
2023/11/27 03:20:59;;;;;;;7.97;7.22;;;;;;;;;;4970929;28;20488;-75
2023/11/27 03:23:25;;;;;;;6.90;6.30;;;;;;;;;;4972171;28;20042;-77
2023/11/27 03:25:51;;;;;;;6.97;6.28;;;;;;;;;;4971539;28;20421;-75
2023/11/27 03:28:16;;;;;;;7.00;5.95;;;;;;;;;;4954915;28;20149;-74
2023/11/27 03:30:43;;;;;;;8.20;7.60;;;;;;;;;;4952300;28;20040;-75
2023/11/27 03:33:09;;;;;;;3.70;3.08;;;;;;;;;;4954735;28;20508;-76
2023/11/27 03:35:35;;;;;;;4.30;3.97;;;;;;;;;;4971744;28;20047;-74
2023/11/27 03:38:03;;;;;;;3.65;3.20;;;;;;;;;;4970747;28;20517;-74
2023/11/27 03:40:29;;;;;;;3.63;3.30;;;;;;;;;;4953823;28;20046;-74
2023/11/27 03:42:56;;;;;;;3.05;2.83;;;;;;;;;;4971285;28;20042;-74
2023/11/27 03:45:22;;;;;;;7.20;6.65;;;;;;;;;;4938476;28;20039;-74
2023/11/27 03:47:48;;;;;;;6.35;5.85;;;;;;;;;;4970104;28;20137;-76
2023/11/27 03:50:14;;;;;;;5.63;5.13;;;;;;;;;;4972018;28;20042;-75
2023/11/27 03:52:42;;;;;;;5.97;5.47;;;;;;;;;;4957463;28;20070;-74
2023/11/27 03:55:09;;;;;;;5.75;5.18;;;;;;;;;;4971402;28;20540;-73
2023/11/27 03:57:38;;;;;;;3.85;3.55;;;;;;;;;;4973641;28;20069;-73
2023/11/27 04:00:09;;;;;;;5.70;5.30;;;;;;;;;;4955696;28;20531;-74
2023/11/27 04:02:39;;;;;;;4.95;4.55;;;;;;;;;;4956374;28;20133;-74
2023/11/27 04:05:06;;;;;;;3.45;3.20;;;;;;;;;;4957287;28;20045;-74
2023/11/27 04:07:33;;;;;;;2.60;2.50;;;;;;;;;;4974469;28;20061;-72
2023/11/27 04:09:59;;;;;;;2.75;2.55;;;;;;;;;;4974394;28;20042;-73
2023/11/27 04:12:25;;;;;;;4.55;4.20;;;;;;;;;;4974590;28;20054;-73
2023/11/27 04:14:51;;;;;;;4.90;4.50;;;;;;;;;;4974021;28;20101;-73
2023/11/27 04:17:18;;;;;;;4.72;4.32;;;;;;;;;;4972685;28;20058;-72
2023/11/27 04:19:44;;;;;;;4.53;4.22;;;;;;;;;;4973881;28;20544;-73
2023/11/27 04:22:10;;;;;;;3.65;3.35;;;;;;;;;;4956183;28;20413;-73
2023/11/27 04:24:37;;;;;;;4.47;4.18;;;;;;;;;;4972807;28;20046;-72
2023/11/27 04:27:03;;;;;;;6.65;6.15;;;;;;;;;;4957032;28;20049;-73
2023/11/27 04:29:30;;;;;;;5.95;5.45;;;;;;;;;;4971729;28;20042;-73
2023/11/27 04:31:55;;;;;;;4.95;4.57;;;;;;;;;;4970792;28;20051;-73
2023/11/27 04:34:21;;;;;;;5.68;5.28;;;;;;;;;;4973528;28;20038;-74
2023/11/27 04:36:48;;;;;;;4.32;4.03;;;;;;;;;;4973007;28;20073;-73
2023/11/27 04:39:14;;;;;;;5.10;4.70;;;;;;;;;;4972776;28;20102;-73
2023/11/27 04:41:42;;;;;;;4.13;3.72;;;;;;;;;;4973557;28;20129;-74
2023/11/27 04:44:08;;;;;;;5.05;4.55;;;;;;;;;;4956618;28;20050;-72
2023/11/27 04:46:34;;;;;;;5.45;5.05;;;;;;;;;;4956167;28;20531;-73
2023/11/27 04:49:01;;;;;;;3.47;3.17;;;;;;;;;;4972340;28;20043;-72
2023/11/27 04:51:28;;;;;;;3.30;3.10;;;;;;;;;;4973475;28;20062;-73
2023/11/27 04:53:53;;;;;;;3.40;3.10;;;;;;;;;;4973557;28;20638;-72
2023/11/27 04:56:19;;;;;;;3.92;3.70;;;;;;;;;;4973348;28;20126;-73
2023/11/27 04:58:46;;;;;;;4.28;3.97;;;;;;;;;;4955906;28;20059;-72
2023/11/27 05:01:12;;;;;;;3.40;3.10;;;;;;;;;;4972257;28;20398;-72
2023/11/27 05:03:38;;;;;;;4.07;3.78;;;;;;;;;;4971760;28;20583;-73
2023/11/27 05:06:04;;;;;;;5.70;5.30;;;;;;;;;;4973251;28;20045;-73
2023/11/27 05:08:30;;;;;;;3.20;3.00;;;;;;;;;;4956170;28;20070;-71
2023/11/27 05:10:56;;;;;;;6.13;5.72;;;;;;;;;;4972842;28;20034;-71
2023/11/27 05:13:22;;;;;;;6.22;5.72;;;;;;;;;;4973122;28;20053;-71
2023/11/27 05:15:48;;;;;;;4.97;4.68;;;;;;;;;;4972843;28;20043;-71
2023/11/27 05:18:15;;;;;;;3.70;3.42;;;;;;;;;;4972825;28;20512;-71
2023/11/27 05:20:42;;;;;;;5.00;4.70;;;;;;;;;;4955628;28;20516;-71
2023/11/27 05:23:08;;;;;;;3.30;3.10;;;;;;;;;;4973005;28;20043;-71
2023/11/27 05:25:34;;;;;;;5.40;5.05;;;;;;;;;;4973004;28;20039;-70
2023/11/27 05:28:00;;;;;;;4.28;3.97;;;;;;;;;;4971383;28;20505;-72
2023/11/27 05:30:26;;;;;;;2.20;2.10;;;;;;;;;;4972793;28;20047;-72
2023/11/27 05:32:52;;;;;;;4.88;4.57;;;;;;;;;;4955562;28;20416;-70
2023/11/27 05:35:18;;;;;;;4.45;4.15;;;;;;;;;;4972659;28;20046;-72
2023/11/27 05:37:44;;;;;;;3.55;3.35;;;;;;;;;;4955228;28;20141;-72
2023/11/27 05:40:10;;;;;;;3.95;3.67;;;;;;;;;;4972602;28;20107;-72
2023/11/27 05:42:39;;;;;;;3.00;2.80;;;;;;;;;;4972430;28;20042;-71
2023/11/27 05:45:12;;;;;;;3.90;3.70;;;;;;;;;;4955167;28;20120;-72
2023/11/27 05:47:39;;;;;;;4.93;4.72;;;;;;;;;;4972937;28;20170;-73
2023/11/27 05:50:05;;;;;;;4.07;3.88;;;;;;;;;;4955473;28;20047;-74
2023/11/27 05:52:32;;;;;;;4.43;4.18;;;;;;;;;;4972563;28;20288;-72
2023/11/27 05:54:59;;;;;;;3.92;3.65;;;;;;;;;;4972204;28;20079;-73
2023/11/27 05:57:25;;;;;;;1.98;1.88;;;;;;;;;;4972343;28;20049;-71
2023/11/27 05:59:51;;;;;;;3.90;3.67;;;;;;;;;;4970523;28;20207;-73
2023/11/27 06:02:17;;;;;;;3.72;3.53;;;;;;;;;;4971784;28;20795;-75
2023/11/27 06:04:45;;;;;;;2.55;2.45;;;;;;;;;;4971382;28;20038;-74
2023/11/27 06:07:11;;;;;;;4.03;3.83;;;;;;;;;;4972144;28;20121;-74
2023/11/27 06:09:37;;;;;;;1.85;1.75;;;;;;;;;;4953607;28;20589;-75
2023/11/27 06:12:03;;;;;;;1.98;1.88;;;;;;;;;;4971186;28;20113;-74
2023/11/27 06:14:29;;;;;;;2.70;2.50;;;;;;;;;;4972242;28;20046;-74
2023/11/27 06:16:56;;;;;;;2.03;1.92;;;;;;;;;;4971259;28;20089;-74
2023/11/27 06:19:22;;;;;;;3.30;3.00;;;;;;;;;;4970882;28;20456;-74
2023/11/27 06:21:48;;;;;;;1.88;1.77;;;;;;;;;;4970784;28;20030;-74
2023/11/27 06:24:14;;;;;;;3.15;2.95;;;;;;;;;;4970844;28;20058;-74
2023/11/27 06:26:40;;;;;;;2.17;2.08;;;;;;;;;;4971765;28;20106;-74
2023/11/27 06:29:06;;;;;;;2.78;2.67;;;;;;;;;;4954840;28;20425;-74
2023/11/27 06:31:32;;;;;;;3.42;3.22;;;;;;;;;;4954740;28;20039;-74
2023/11/27 06:33:58;;;;;;;2.10;2.00;;;;;;;;;;4971597;28;20088;-73
2023/11/27 06:36:24;;;;;;;3.17;2.97;;;;;;;;;;4971774;28;20092;-73
2023/11/27 06:38:50;;;;;;;4.28;4.03;;;;;;;;;;4971526;28;20059;-75
2023/11/27 06:41:16;;;;;;;3.40;3.20;;;;;;;;;;4971826;28;20046;-74
2023/11/27 06:43:43;;;;;;;4.60;4.30;;;;;;;;;;4970467;28;20077;-75
2023/11/27 06:46:14;;;;;;;3.55;3.35;;;;;;;;;;4953400;28;20035;-74
2023/11/27 06:48:40;;;;;;;3.63;3.35;;;;;;;;;;4971851;28;20540;-74
2023/11/27 06:51:07;;;;;;;3.35;3.15;;;;;;;;;;4969860;28;20058;-74
2023/11/27 06:53:33;;;;;;;5.20;4.80;;;;;;;;;;4971542;28;20046;-73
2023/11/27 06:55:59;;;;;;;3.47;3.17;;;;;;;;;;4953552;28;20475;-74
2023/11/27 06:58:25;;;;;;;2.50;2.40;;;;;;;;;;4971183;28;20121;-74
2023/11/27 07:00:51;;;;;;;3.05;2.85;;;;;;;;;;4953717;28;20039;-74
2023/11/27 07:03:17;;;;;;;4.53;4.13;;;;;;;;;;4971437;28;20046;-75
2023/11/27 07:05:44;;;;;;;4.97;4.63;;;;;;;;;;4971183;28;20047;-76
2023/11/27 07:08:10;;;;;;;4.85;4.45;;;;;;;;;;4971423;28;20043;-76
2023/11/27 07:10:36;;;;;;;4.05;3.75;;;;;;;;;;4970643;28;20524;-74
2023/11/27 07:13:02;;;;;;;5.45;5.05;;;;;;;;;;4953882;28;20035;-75
2023/11/27 07:15:28;;;;;;;5.55;5.10;;;;;;;;;;4971647;28;20063;-76
2023/11/27 07:17:54;;;;;;;2.95;2.75;;;;;;;;;;4972264;28;20066;-76
2023/11/27 07:20:21;;;;;;;4.07;3.80;;;;;;;;;;4973847;28;20061;-76
2023/11/27 07:22:47;;;;;;;5.50;5.10;;;;;;;;;;4968826;28;20041;-74
2023/11/27 07:25:16;;;;;;;4.65;4.32;;;;;;;;;;4969623;28;20595;-74
2023/11/27 07:27:48;;;;;;;4.45;4.05;;;;;;;;;;4953295;28;20102;-73
2023/11/27 07:30:15;;;;;;;4.07;3.78;;;;;;;;;;4966890;28;20051;-73
2023/11/27 07:32:42;;;;;;;5.00;4.60;;;;;;;;;;4970595;28;20042;-74
2023/11/27 07:35:10;;;;;;;5.35;4.95;;;;;;;;;;4970579;28;20097;-73
2023/11/27 07:37:39;;;;;;;5.95;5.45;;;;;;;;;;4970464;28;20522;-73
2023/11/27 07:40:10;;;;;;;6.25;5.75;;;;;;;;;;4953543;28;20051;-73
2023/11/27 07:42:36;;;;;;;;;;;;;;;;;;4972286;28;20047;-72
2023/11/27 07:45:04;;;;;;;6.07;4.10;;;;;;;;;;4971210;28;20408;-71
2023/11/27 07:47:31;;;;;;;4.40;4.10;;;;;;;;;;4953401;28;20046;-72
2023/11/27 07:49:57;;;;;;;5.63;5.15;;;;;;;;;;4970773;28;20516;-72
2023/11/27 07:52:23;;;;;;;4.80;4.40;;;;;;;;;;4952869;28;20038;-72
2023/11/27 07:54:49;;;;;;;4.63;4.32;;;;;;;;;;4952932;28;20089;-73
2023/11/27 07:57:17;;;;;;;4.40;4.07;;;;;;;;;;4968858;28;20113;-71
2023/11/27 07:59:44;;;;;;;10.32;9.32;;;;;;;;;;4970095;28;20058;-72
2023/11/27 08:02:11;;;;;;;7.53;5.53;;;;;;;;;;4952574;28;20027;-73
2023/11/27 08:04:37;;;;;;;9.65;8.65;;;;;;;;;;4969613;28;20043;-72
2023/11/27 08:07:03;;;;;;;10.18;8.15;;;;;;;;;;4969884;28;20057;-73
2023/11/27 08:09:29;;;;;;;22.92;19.40;;;;;;;;;;4970304;28;20475;-73
2023/11/27 08:11:55;;;;;;;7.60;6.93;;;;;;;;;;4969878;28;20163;-73
2023/11/27 08:14:21;;;;;;;21.92;15.82;;;;;;;;;;4969380;28;20133;-75
2023/11/27 08:16:48;;;;;;;8.20;7.45;;;;;;;;;;4969849;28;20047;-76
2023/11/27 08:19:16;;;;;;;13.88;10.73;;;;;;;;;;4941568;28;20078;-76
2023/11/27 08:21:44;;;;;;;11.13;9.73;;;;;;;;;;4959809;28;20035;-72
2023/11/27 08:24:13;;;;;;;15.05;9.30;;;;;;;;;;4967948;28;20191;-76
2023/11/27 08:26:40;;;;;;;6.40;5.80;;;;;;;;;;4954421;28;20097;-76
2023/11/27 08:29:07;;;;;;;20.33;13.93;;;;;;;;;;4961456;28;20039;-77
2023/11/27 08:31:33;;;;;;;18.90;11.55;;;;;;;;;;4972164;28;20406;-78
2023/11/27 08:33:59;;;;;;;14.90;9.90;;;;;;;;;;4973910;28;20062;-79
2023/11/27 08:36:26;;;;;;;13.02;9.93;;;;;;;;;;4964469;28;20041;-79
2023/11/27 08:38:52;;;;;;;15.50;10.00;;;;;;;;;;4980052;28;20062;-79
2023/11/27 08:41:18;;;;;;;12.60;10.52;;;;;;;;;;4980996;28;20098;-79
2023/11/27 08:43:45;;;;;;;13.77;8.88;;;;;;;;;;4981867;28;20038;-79
2023/11/27 08:46:13;;;;;;;18.48;11.50;;;;;;;;;;4977173;28;20038;-74
2023/11/27 08:48:39;;;;;;;26.98;18.65;;;;;;;;;;4971881;28;20051;-74
2023/11/27 08:51:08;;;;;;;19.63;13.52;;;;;;;;;;4974496;28;20038;-74
2023/11/27 08:53:34;;;;;;;26.88;17.20;;;;;;;;;;4958026;28;20047;-72
2023/11/27 08:56:00;;;;;;;27.08;18.30;;;;;;;;;;4972700;28;20137;-76
2023/11/27 08:58:26;;;;;;;16.98;11.70;;;;;;;;;;4969679;28;20141;-75
2023/11/27 09:00:52;;;;;;;20.90;12.57;;;;;;;;;;4970947;28;20160;-76
2023/11/27 09:03:18;;;;;;;22.15;11.75;;;;;;;;;;4976700;28;20043;-74
2023/11/27 09:05:45;;;;;;;27.83;17.73;;;;;;;;;;4982348;28;20113;-74
2023/11/27 09:08:13;;;;;;;25.00;15.20;;;;;;;;;;4981930;28;20051;-75
2023/11/27 09:10:39;;;;;;;10.13;7.72;;;;;;;;;;4982863;28;20031;-75
2023/11/27 09:13:06;;;;;;;22.85;10.45;;;;;;;;;;4966133;28;20150;-76
2023/11/27 09:15:32;;;;;;;21.73;9.10;;;;;;;;;;4975827;28;20524;-76
2023/11/27 09:17:59;;;;;;;8.32;5.95;;;;;;;;;;4973023;28;20058;-76
2023/11/27 09:20:25;;;;;;;37.55;16.33;;;;;;;;;;4974596;28;20069;-76
2023/11/27 09:22:52;;;;;;;20.45;12.55;;;;;;;;;;4972597;28;20066;-76
2023/11/27 09:25:18;;;;;;;7.68;7.03;;;;;;;;;;4973673;28;20129;-75
2023/11/27 09:27:46;;;;;;;9.18;8.15;;;;;;;;;;4973720;28;20061;-76
2023/11/27 09:30:12;;;;;;;26.80;14.45;;;;;;;;;;4956464;28;20130;-76
2023/11/27 09:32:38;;;;;;;14.00;8.80;;;;;;;;;;4973749;28;20046;-76
2023/11/27 09:35:12;;;;;;;33.78;19.90;;;;;;;;;;4973304;28;20066;-75
2023/11/27 09:37:39;;;;;;;24.52;13.73;;;;;;;;;;4959899;28;20124;-75
2023/11/27 09:40:05;;;;;;;32.08;18.38;;;;;;;;;;4972724;28;20070;-75
2023/11/27 09:42:39;;;;;;;20.40;13.48;;;;;;;;;;4955594;28;20038;-76
2023/11/27 09:45:07;;;;;;;26.25;14.95;;;;;;;;;;4956602;28;20488;-76
2023/11/27 09:47:33;;;;;;;24.75;15.18;;;;;;;;;;4971045;28;20069;-75
2023/11/27 09:50:00;;;;;;;13.05;9.63;;;;;;;;;;4966740;28;20035;-76
2023/11/27 09:52:31;;;;;;;18.02;13.07;;;;;;;;;;4972638;28;20078;-76
2023/11/27 09:55:01;;;;;;;35.40;22.08;;;;;;;;;;4972471;28;20079;-75
2023/11/27 09:57:35;;;;;;;37.88;19.13;;;;;;;;;;4972752;28;20460;-76
2023/11/27 10:00:06;;;;;;;22.98;13.60;;;;;;;;;;4924115;28;20059;-75
2023/11/27 10:02:33;;;;;;;26.60;14.32;;;;;;;;;;4972033;28;20069;-76
2023/11/27 10:05:04;;;;;;;18.45;13.48;;;;;;;;;;4971462;28;20188;-74
2023/11/27 10:07:34;;;;;;;20.55;13.00;;;;;;;;;;4973047;28;20464;-77
2023/11/27 10:10:07;;;;;;;12.77;9.10;;;;;;;;;;4955561;28;20176;-76
2023/11/27 10:12:36;;;;;;;17.30;12.15;;;;;;;;;;4973146;28;20453;-75
2023/11/27 10:15:03;;;;;;;18.88;11.82;;;;;;;;;;4972114;28;20054;-75
2023/11/27 10:17:33;;;;;;;11.68;10.48;;;;;;;;;;4972257;28;20054;-75
2023/11/27 10:19:59;;;;;;;9.57;8.60;;;;;;;;;;4955506;28;20078;-76
2023/11/27 10:22:32;;;;;;;13.38;11.43;;;;;;;;;;4974848;28;20041;-76
2023/11/27 10:25:02;;;;;;;34.35;17.80;;;;;;;;;;4956992;28;20050;-75
2023/11/27 10:27:31;;;;;;;15.90;12.93;;;;;;;;;;4958051;28;20138;-76
2023/11/27 10:29:58;;;;;;;19.17;13.15;;;;;;;;;;4972667;28;20045;-75
2023/11/27 10:32:24;;;;;;;20.55;11.73;;;;;;;;;;4971032;28;20057;-75
2023/11/27 10:34:52;;;;;;;28.20;14.93;;;;;;;;;;4972382;28;20043;-76
2023/11/27 10:37:18;;;;;;;38.45;23.55;;;;;;;;;;4970829;28;20047;-75
2023/11/27 10:39:49;;;;;;;36.45;18.73;;;;;;;;;;4971955;28;20058;-75
2023/11/27 10:42:18;;;;;;;18.38;12.32;;;;;;;;;;4968816;28;20027;-76
2023/11/27 10:44:50;;;;;;;19.92;13.70;;;;;;;;;;4972079;28;20093;-75
2023/11/27 10:47:16;;;;;;;23.73;14.02;;;;;;;;;;4970584;28;20596;-75
2023/11/27 10:49:42;;;;;;;11.55;8.85;;;;;;;;;;4971260;28;20089;-76
2023/11/27 10:52:11;;;;;;;15.75;10.48;;;;;;;;;;4965882;28;20071;-76
2023/11/27 10:54:38;;;;;;;19.42;12.00;;;;;;;;;;4951304;28;20061;-75
2023/11/27 10:57:04;;;;;;;19.60;13.27;;;;;;;;;;4970858;28;20073;-78
2023/11/27 10:59:33;;;;;;;9.65;8.65;;;;;;;;;;4974205;28;20039;-79
2023/11/27 11:02:01;;;;;;;10.88;9.75;;;;;;;;;;4964039;28;20047;-80
2023/11/27 11:04:28;;;;;;;10.90;9.73;;;;;;;;;;4950180;28;20042;-80
2023/11/27 11:06:55;;;;;;;21.10;15.57;;;;;;;;;;4977023;28;20532;-78
2023/11/27 11:09:24;;;;;;;12.68;10.10;;;;;;;;;;4957504;28;20051;-79
2023/11/27 11:11:51;;;;;;;11.40;8.98;;;;;;;;;;4940187;28;20047;-77
2023/11/27 11:14:19;;;;;;;9.43;8.57;;;;;;;;;;4969860;28;20574;-75
2023/11/27 11:16:51;;;;;;;10.00;8.00;;;;;;;;;;4970126;28;20057;-78
2023/11/27 11:19:27;;;;;;;9.45;8.43;;;;;;;;;;4931253;28;20533;-76
2023/11/27 11:22:09;;;;;;;10.02;9.05;;;;;;;;;;4970930;28;20089;-79
2023/11/27 11:24:46;;;;;;;7.22;6.63;;;;;;;;;;4971618;28;20042;-78
2023/11/27 11:27:27;;;;;;;8.38;7.57;;;;;;;;;;4970132;28;20220;-77
2023/11/27 11:29:57;;;;;;;6.28;5.68;;;;;;;;;;4970763;28;20086;-77
2023/11/27 11:32:28;;;;;;;8.70;6.68;;;;;;;;;;4970357;28;20430;-76
2023/11/27 11:34:58;;;;;;;7.35;6.20;;;;;;;;;;4971098;28;20057;-77
2023/11/27 11:37:25;;;;;;;7.10;6.45;;;;;;;;;;4972286;28;20401;-77
2023/11/27 11:39:53;;;;;;;7.40;6.75;;;;;;;;;;4938675;28;20073;-76
2023/11/27 11:42:23;;;;;;;7.18;6.57;;;;;;;;;;4953128;28;20121;-75
2023/11/27 11:45:03;;;;;;;8.32;5.80;;;;;;;;;;4968661;28;20057;-77
2023/11/27 11:47:37;;;;;;;8.25;7.43;;;;;;;;;;4952905;28;20039;-77
2023/11/27 11:50:26;;;;;;;5.88;5.38;;;;;;;;;;4971177;28;20101;-77
2023/11/27 11:52:53;;;;;;;6.00;4.55;;;;;;;;;;4973774;28;20046;-77
2023/11/27 11:55:25;;;;;;;4.05;3.75;;;;;;;;;;4954020;28;20041;-79
2023/11/27 11:57:51;;;;;;;7.13;6.40;;;;;;;;;;4934512;28;20046;-79
2023/11/27 12:00:22;;;;;;;4.35;3.95;;;;;;;;;;4958787;28;20063;-77
2023/11/27 12:02:51;;;;;;;8.55;5.13;;;;;;;;;;4972439;28;20045;-77
2023/11/27 12:05:18;;;;;;;5.80;5.22;;;;;;;;;;4972229;28;20061;-80
2023/11/27 12:07:44;;;;;;;7.22;5.07;;;;;;;;;;4971805;28;20043;-78
2023/11/27 12:10:16;;;;;;;7.35;6.28;;;;;;;;;;4972330;28;20047;-78
2023/11/27 12:12:52;;;;;;;6.28;5.68;;;;;;;;;;4967571;28;20070;-78
2023/11/27 12:15:19;;;;;;;4.63;4.13;;;;;;;;;;4958253;28;20527;-77
2023/11/27 12:17:50;;;;;;;7.25;6.22;;;;;;;;;;4958243;28;20055;-77
2023/11/27 12:20:22;;;;;;;6.03;5.43;;;;;;;;;;4959076;28;20106;-78
2023/11/27 12:22:51;;;;;;;5.22;4.22;;;;;;;;;;4976203;28;20413;-77
2023/11/27 12:25:18;;;;;;;4.65;4.35;;;;;;;;;;4974614;28;20078;-75
2023/11/27 12:27:45;;;;;;;3.67;3.38;;;;;;;;;;4958610;28;20053;-78
2023/11/27 12:30:18;;;;;;;9.20;3.30;;;;;;;;;;4960532;28;20042;-78
2023/11/27 12:32:50;;;;;;;4.68;4.15;;;;;;;;;;4959656;28;20054;-78
2023/11/27 12:35:16;;;;;;;5.45;4.05;;;;;;;;;;4958711;28;20041;-75
2023/11/27 12:37:45;;;;;;;3.35;3.05;;;;;;;;;;4955989;28;20042;-78
2023/11/27 12:40:17;;;;;;;4.45;4.05;;;;;;;;;;4957550;28;20050;-78
2023/11/27 12:42:48;;;;;;;3.78;3.47;;;;;;;;;;4974857;28;20171;-77
2023/11/27 12:45:21;;;;;;;3.00;2.80;;;;;;;;;;4973474;28;20517;-77
2023/11/27 12:47:50;;;;;;;2.97;2.78;;;;;;;;;;4972817;28;20043;-77
2023/11/27 12:50:27;;;;;;;3.90;3.50;;;;;;;;;;4973620;28;20109;-79
2023/11/27 12:53:02;;;;;;;3.00;2.80;;;;;;;;;;4975169;28;20045;-78
2023/11/27 12:55:36;;;;;;;2.92;2.72;;;;;;;;;;4942765;28;20525;-78
2023/11/27 12:58:10;;;;;;;3.42;3.08;;;;;;;;;;4955443;28;20064;-78
2023/11/27 13:00:56;;;;;;;3.30;3.00;;;;;;;;;;4941808;28;20066;-78
2023/11/27 13:03:25;;;;;;;4.18;3.78;;;;;;;;;;4955218;28;20041;-78
2023/11/27 13:05:52;;;;;;;5.10;3.25;;;;;;;;;;4975260;28;20113;-78
2023/11/27 13:08:23;;;;;;;2.90;2.63;;;;;;;;;;4973204;28;20114;-78
2023/11/27 13:10:50;;;;;;;3.53;3.23;;;;;;;;;;4957371;28;20146;-77
2023/11/27 13:13:22;;;;;;;3.60;3.03;;;;;;;;;;4924585;29;20682;-78
2023/11/27 13:15:48;;;;;;;3.40;3.10;;;;;;;;;;4973991;28;20035;-77
2023/11/27 13:18:17;;;;;;;3.00;2.80;;;;;;;;;;4945586;28;20061;-78
2023/11/27 13:20:46;;;;;;;2.83;2.63;;;;;;;;;;4947216;28;20046;-81
2023/11/27 13:23:13;;;;;;;5.25;2.95;;;;;;;;;;4979952;28;20111;-80
2023/11/27 13:25:39;;;;;;;5.72;3.55;;;;;;;;;;4949137;28;20425;-80
2023/11/27 13:28:17;;;;;;;2.17;2.08;;;;;;;;;;4948635;28;20099;-79
2023/11/27 13:30:44;;;;;;;2.65;2.35;;;;;;;;;;4966238;28;20055;-80
2023/11/27 13:33:10;;;;;;;6.53;3.10;;;;;;;;;;4951229;28;20045;-80
2023/11/27 13:35:37;;;;;;;4.03;2.88;;;;;;;;;;4947840;28;20066;-80
2023/11/27 13:38:14;;;;;;;2.42;2.22;;;;;;;;;;4979327;28;20045;-81
2023/11/27 13:40:47;;;;;;;1.88;1.77;;;;;;;;;;4966883;28;20468;-81
2023/11/27 13:43:17;;;;;;;2.08;1.98;;;;;;;;;;4942518;28;20058;-79
2023/11/27 13:45:45;;;;;;;2.63;2.42;;;;;;;;;;4937801;28;20041;-80
2023/11/27 13:48:14;;;;;;;2.30;2.10;;;;;;;;;;4972431;28;20038;-81
2023/11/27 13:50:40;;;;;;;2.40;2.30;;;;;;;;;;4957105;28;20035;-79
2023/11/27 13:53:15;;;;;;;2.80;2.60;;;;;;;;;;4985700;28;20042;-80
2023/11/27 13:55:42;;;;;;;5.35;2.38;;;;;;;;;;4934445;28;20038;-80
2023/11/27 13:58:08;;;;;;;2.63;2.42;;;;;;;;;;4968784;28;20189;-80
2023/11/27 14:00:42;;;;;;;5.07;2.20;;;;;;;;;;4982916;28;20413;-79
2023/11/27 14:03:11;;;;;;;2.63;2.53;;;;;;;;;;4981444;28;20130;-80
2023/11/27 14:05:38;;;;;;;3.05;2.80;;;;;;;;;;4931899;28;20057;-80
2023/11/27 14:08:10;;;;;;;2.67;2.20;;;;;;;;;;4981175;28;20043;-80
2023/11/27 14:10:54;;;;;;;8.60;5.28;;;;;;;;;;4965413;28;20043;-81
2023/11/27 14:13:24;;;;;;;5.40;4.55;;;;;;;;;;4931533;28;20058;-79
2023/11/27 14:15:50;;;;;;;6.65;6.05;;;;;;;;;;4964276;28;20049;-79
2023/11/27 14:20:46;;;;;;;5.38;4.88;;;;;;;;;;4959331;28;20047;-79
2023/11/27 14:23:23;;;;;;;6.43;6.00;;;;;;;;;;4963410;28;20046;-77
2023/11/27 14:26:20;;;;;;;4.10;3.80;;;;;;;;;;4950310;28;20054;-78
2023/11/27 14:31:14;;;;;;;6.53;3.10;;;;;;;;;;4961029;28;20049;-79
2023/11/27 14:33:40;;;;;;;3.97;2.58;;;;;;;;;;4973389;28;20078;-78
2023/11/27 14:36:11;;;;;;;3.42;2.53;;;;;;;;;;4968001;28;20490;-79
2023/11/27 14:38:37;;;;;;;2.00;1.85;;;;;;;;;;4928055;28;20058;-79
2023/11/27 14:41:04;;;;;;;10.88;2.05;;;;;;;;;;4962725;28;20047;-79
2023/11/27 14:43:32;;;;;;;2.30;2.20;;;;;;;;;;4940098;28;20043;-80